sensor_id;sensor_type;location;lat;lon;timestamp;P1;durP1;ratioP1;P2;durP2;ratioP2
38513;SDS011;24282;48.400;10.808;2023-06-10T00:00:42;3.10;;;2.78;;
38513;SDS011;24282;48.400;10.808;2023-06-10T00:03:08;3.13;;;2.80;;
38513;SDS011;24282;48.400;10.808;2023-06-10T00:05:34;3.80;;;2.85;;
38513;SDS011;24282;48.400;10.808;2023-06-10T00:08:01;3.33;;;3.03;;
38513;SDS011;24282;48.400;10.808;2023-06-10T00:10:35;3.40;;;2.80;;
38513;SDS011;24282;48.400;10.808;2023-06-10T00:13:05;2.90;;;2.60;;
38513;SDS011;24282;48.400;10.808;2023-06-10T00:15:34;4.85;;;3.20;;
38513;SDS011;24282;48.400;10.808;2023-06-10T00:18:00;3.60;;;3.08;;
38513;SDS011;24282;48.400;10.808;2023-06-10T00:20:27;3.60;;;3.20;;
38513;SDS011;24282;48.400;10.808;2023-06-10T00:22:53;3.13;;;2.83;;
38513;SDS011;24282;48.400;10.808;2023-06-10T00:25:19;3.22;;;2.92;;
38513;SDS011;24282;48.400;10.808;2023-06-10T00:27:45;2.78;;;2.33;;
38513;SDS011;24282;48.400;10.808;2023-06-10T00:30:10;3.47;;;3.10;;
38513;SDS011;24282;48.400;10.808;2023-06-10T00:32:37;3.30;;;3.00;;
38513;SDS011;24282;48.400;10.808;2023-06-10T00:35:06;2.85;;;2.50;;
38513;SDS011;24282;48.400;10.808;2023-06-10T00:37:32;4.32;;;2.85;;
38513;SDS011;24282;48.400;10.808;2023-06-10T00:40:01;3.55;;;2.97;;
38513;SDS011;24282;48.400;10.808;2023-06-10T00:42:31;3.47;;;2.92;;
38513;SDS011;24282;48.400;10.808;2023-06-10T00:44:57;3.40;;;3.08;;
38513;SDS011;24282;48.400;10.808;2023-06-10T00:47:23;3.10;;;2.72;;
38513;SDS011;24282;48.400;10.808;2023-06-10T00:49:49;3.80;;;2.72;;
38513;SDS011;24282;48.400;10.808;2023-06-10T00:52:16;3.50;;;3.20;;
38513;SDS011;24282;48.400;10.808;2023-06-10T00:54:43;3.00;;;2.70;;
38513;SDS011;24282;48.400;10.808;2023-06-10T00:57:09;2.88;;;2.58;;
38513;SDS011;24282;48.400;10.808;2023-06-10T00:59:36;3.30;;;3.00;;
38513;SDS011;24282;48.400;10.808;2023-06-10T01:02:03;4.05;;;2.90;;
38513;SDS011;24282;48.400;10.808;2023-06-10T01:04:29;3.63;;;2.85;;
38513;SDS011;24282;48.400;10.808;2023-06-10T01:09:30;3.60;;;2.78;;
38513;SDS011;24282;48.400;10.808;2023-06-10T01:12:10;3.00;;;2.70;;
38513;SDS011;24282;48.400;10.808;2023-06-10T01:14:42;3.65;;;2.80;;
38513;SDS011;24282;48.400;10.808;2023-06-10T01:17:10;3.15;;;2.85;;
38513;SDS011;24282;48.400;10.808;2023-06-10T01:19:36;3.50;;;3.20;;
38513;SDS011;24282;48.400;10.808;2023-06-10T01:22:02;3.80;;;3.28;;
38513;SDS011;24282;48.400;10.808;2023-06-10T01:24:28;3.40;;;3.10;;
38513;SDS011;24282;48.400;10.808;2023-06-10T01:26:59;3.67;;;3.00;;
38513;SDS011;24282;48.400;10.808;2023-06-10T01:29:33;2.97;;;2.60;;
38513;SDS011;24282;48.400;10.808;2023-06-10T01:34:45;4.07;;;3.25;;
38513;SDS011;24282;48.400;10.808;2023-06-10T01:37:13;3.47;;;3.17;;
38513;SDS011;24282;48.400;10.808;2023-06-10T01:39:41;3.67;;;3.05;;
38513;SDS011;24282;48.400;10.808;2023-06-10T01:42:08;3.35;;;3.03;;
38513;SDS011;24282;48.400;10.808;2023-06-10T01:44:36;3.33;;;3.00;;
38513;SDS011;24282;48.400;10.808;2023-06-10T01:47:04;3.38;;;3.08;;
38513;SDS011;24282;48.400;10.808;2023-06-10T01:49:30;4.22;;;3.80;;
38513;SDS011;24282;48.400;10.808;2023-06-10T01:51:56;3.70;;;3.03;;
38513;SDS011;24282;48.400;10.808;2023-06-10T01:54:21;3.67;;;3.13;;
38513;SDS011;24282;48.400;10.808;2023-06-10T01:56:47;2.95;;;2.60;;
38513;SDS011;24282;48.400;10.808;2023-06-10T01:59:13;3.50;;;3.20;;
38513;SDS011;24282;48.400;10.808;2023-06-10T02:01:38;3.25;;;2.95;;
38513;SDS011;24282;48.400;10.808;2023-06-10T02:04:04;3.85;;;3.50;;
38513;SDS011;24282;48.400;10.808;2023-06-10T02:06:31;3.40;;;2.60;;
38513;SDS011;24282;48.400;10.808;2023-06-10T02:08:56;3.80;;;3.40;;
38513;SDS011;24282;48.400;10.808;2023-06-10T02:11:22;3.70;;;3.03;;
38513;SDS011;24282;48.400;10.808;2023-06-10T02:13:48;3.60;;;3.15;;
38513;SDS011;24282;48.400;10.808;2023-06-10T02:16:13;3.38;;;3.03;;
38513;SDS011;24282;48.400;10.808;2023-06-10T02:18:42;3.97;;;3.58;;
38513;SDS011;24282;48.400;10.808;2023-06-10T02:21:11;3.70;;;3.35;;
38513;SDS011;24282;48.400;10.808;2023-06-10T02:23:37;3.72;;;3.17;;
38513;SDS011;24282;48.400;10.808;2023-06-10T02:26:03;2.97;;;2.67;;
38513;SDS011;24282;48.400;10.808;2023-06-10T02:28:28;3.30;;;3.00;;
38513;SDS011;24282;48.400;10.808;2023-06-10T02:30:56;3.65;;;3.15;;
38513;SDS011;24282;48.400;10.808;2023-06-10T02:33:22;4.05;;;3.65;;
38513;SDS011;24282;48.400;10.808;2023-06-10T02:35:49;3.63;;;3.33;;
38513;SDS011;24282;48.400;10.808;2023-06-10T02:38:15;3.40;;;3.10;;
38513;SDS011;24282;48.400;10.808;2023-06-10T02:40:42;3.45;;;3.08;;
38513;SDS011;24282;48.400;10.808;2023-06-10T02:43:09;3.30;;;3.00;;
38513;SDS011;24282;48.400;10.808;2023-06-10T02:45:35;4.28;;;3.08;;
38513;SDS011;24282;48.400;10.808;2023-06-10T02:48:03;3.28;;;2.90;;
38513;SDS011;24282;48.400;10.808;2023-06-10T02:50:30;4.90;;;3.22;;
38513;SDS011;24282;48.400;10.808;2023-06-10T02:53:14;3.72;;;3.33;;
38513;SDS011;24282;48.400;10.808;2023-06-10T02:55:44;3.47;;;3.17;;
38513;SDS011;24282;48.400;10.808;2023-06-10T02:58:13;3.80;;;3.45;;
38513;SDS011;24282;48.400;10.808;2023-06-10T03:00:40;3.30;;;3.00;;
38513;SDS011;24282;48.400;10.808;2023-06-10T03:03:08;4.07;;;3.67;;
38513;SDS011;24282;48.400;10.808;2023-06-10T03:05:44;3.35;;;3.05;;
38513;SDS011;24282;48.400;10.808;2023-06-10T03:08:11;3.92;;;3.30;;
38513;SDS011;24282;48.400;10.808;2023-06-10T03:10:40;3.67;;;3.30;;
38513;SDS011;24282;48.400;10.808;2023-06-10T03:13:07;4.20;;;3.80;;
38513;SDS011;24282;48.400;10.808;2023-06-10T03:15:36;3.78;;;3.47;;
38513;SDS011;24282;48.400;10.808;2023-06-10T03:18:06;3.88;;;3.28;;
38513;SDS011;24282;48.400;10.808;2023-06-10T03:20:32;4.00;;;3.58;;
38513;SDS011;24282;48.400;10.808;2023-06-10T03:23:04;3.85;;;3.50;;
38513;SDS011;24282;48.400;10.808;2023-06-10T03:25:33;4.88;;;3.40;;
38513;SDS011;24282;48.400;10.808;2023-06-10T03:27:59;3.72;;;3.38;;
38513;SDS011;24282;48.400;10.808;2023-06-10T03:30:26;3.83;;;3.42;;
38513;SDS011;24282;48.400;10.808;2023-06-10T03:32:55;3.90;;;3.42;;
38513;SDS011;24282;48.400;10.808;2023-06-10T03:35:24;4.82;;;3.88;;
38513;SDS011;24282;48.400;10.808;2023-06-10T03:37:49;4.40;;;4.00;;
38513;SDS011;24282;48.400;10.808;2023-06-10T03:40:15;4.50;;;3.78;;
38513;SDS011;24282;48.400;10.808;2023-06-10T03:42:44;3.78;;;3.38;;
38513;SDS011;24282;48.400;10.808;2023-06-10T03:45:12;4.10;;;3.40;;
38513;SDS011;24282;48.400;10.808;2023-06-10T03:47:38;4.00;;;3.60;;
38513;SDS011;24282;48.400;10.808;2023-06-10T03:50:08;3.95;;;3.60;;
38513;SDS011;24282;48.400;10.808;2023-06-10T03:52:36;4.07;;;3.67;;
38513;SDS011;24282;48.400;10.808;2023-06-10T03:55:02;3.92;;;3.53;;
38513;SDS011;24282;48.400;10.808;2023-06-10T03:57:29;3.65;;;3.25;;
38513;SDS011;24282;48.400;10.808;2023-06-10T03:59:55;3.95;;;3.55;;
38513;SDS011;24282;48.400;10.808;2023-06-10T04:02:22;5.15;;;3.63;;
38513;SDS011;24282;48.400;10.808;2023-06-10T04:04:48;4.25;;;3.85;;
38513;SDS011;24282;48.400;10.808;2023-06-10T04:07:16;3.58;;;3.10;;
38513;SDS011;24282;48.400;10.808;2023-06-10T04:09:44;4.55;;;3.90;;
38513;SDS011;24282;48.400;10.808;2023-06-10T04:12:09;3.53;;;3.22;;
38513;SDS011;24282;48.400;10.808;2023-06-10T04:14:36;4.90;;;3.97;;
38513;SDS011;24282;48.400;10.808;2023-06-10T04:17:04;4.20;;;3.80;;
38513;SDS011;24282;48.400;10.808;2023-06-10T04:19:35;4.00;;;3.60;;
38513;SDS011;24282;48.400;10.808;2023-06-10T04:22:02;4.15;;;3.75;;
38513;SDS011;24282;48.400;10.808;2023-06-10T04:24:30;3.65;;;3.33;;
38513;SDS011;24282;48.400;10.808;2023-06-10T04:26:56;4.03;;;3.63;;
38513;SDS011;24282;48.400;10.808;2023-06-10T04:29:22;4.00;;;3.60;;
38513;SDS011;24282;48.400;10.808;2023-06-10T04:31:48;4.32;;;3.92;;
38513;SDS011;24282;48.400;10.808;2023-06-10T04:34:14;4.05;;;3.67;;
38513;SDS011;24282;48.400;10.808;2023-06-10T04:36:40;4.68;;;4.28;;
38513;SDS011;24282;48.400;10.808;2023-06-10T04:39:06;4.32;;;3.92;;
38513;SDS011;24282;48.400;10.808;2023-06-10T04:41:32;5.22;;;3.35;;
38513;SDS011;24282;48.400;10.808;2023-06-10T04:43:58;4.10;;;3.47;;
38513;SDS011;24282;48.400;10.808;2023-06-10T04:46:25;4.00;;;3.60;;
38513;SDS011;24282;48.400;10.808;2023-06-10T04:48:51;3.72;;;3.35;;
38513;SDS011;24282;48.400;10.808;2023-06-10T04:51:18;4.07;;;3.67;;
38513;SDS011;24282;48.400;10.808;2023-06-10T04:53:44;4.07;;;3.67;;
38513;SDS011;24282;48.400;10.808;2023-06-10T04:56:10;4.97;;;4.10;;
38513;SDS011;24282;48.400;10.808;2023-06-10T04:58:35;4.45;;;3.78;;
38513;SDS011;24282;48.400;10.808;2023-06-10T05:01:01;4.20;;;3.80;;
38513;SDS011;24282;48.400;10.808;2023-06-10T05:03:27;4.25;;;3.85;;
38513;SDS011;24282;48.400;10.808;2023-06-10T05:05:52;4.10;;;3.50;;
38513;SDS011;24282;48.400;10.808;2023-06-10T05:08:18;4.90;;;3.90;;
38513;SDS011;24282;48.400;10.808;2023-06-10T05:10:44;7.28;;;4.03;;
38513;SDS011;24282;48.400;10.808;2023-06-10T05:13:09;5.40;;;3.80;;
38513;SDS011;24282;48.400;10.808;2023-06-10T05:15:35;4.55;;;3.55;;
38513;SDS011;24282;48.400;10.808;2023-06-10T05:18:02;4.30;;;3.50;;
38513;SDS011;24282;48.400;10.808;2023-06-10T05:20:28;4.32;;;3.78;;
38513;SDS011;24282;48.400;10.808;2023-06-10T05:22:54;4.78;;;3.83;;
38513;SDS011;24282;48.400;10.808;2023-06-10T05:25:20;3.90;;;3.50;;
38513;SDS011;24282;48.400;10.808;2023-06-10T05:27:46;4.70;;;4.30;;
38513;SDS011;24282;48.400;10.808;2023-06-10T05:30:12;4.30;;;3.85;;
38513;SDS011;24282;48.400;10.808;2023-06-10T05:32:38;4.13;;;3.72;;
38513;SDS011;24282;48.400;10.808;2023-06-10T05:35:03;4.55;;;4.15;;
38513;SDS011;24282;48.400;10.808;2023-06-10T05:37:29;3.80;;;3.45;;
38513;SDS011;24282;48.400;10.808;2023-06-10T05:39:55;4.75;;;3.55;;
38513;SDS011;24282;48.400;10.808;2023-06-10T05:42:21;4.00;;;3.60;;
38513;SDS011;24282;48.400;10.808;2023-06-10T05:44:47;3.60;;;3.30;;
38513;SDS011;24282;48.400;10.808;2023-06-10T05:47:12;3.78;;;3.33;;
38513;SDS011;24282;48.400;10.808;2023-06-10T05:49:38;4.18;;;3.72;;
38513;SDS011;24282;48.400;10.808;2023-06-10T05:52:04;3.60;;;3.30;;
38513;SDS011;24282;48.400;10.808;2023-06-10T05:54:30;3.60;;;3.17;;
38513;SDS011;24282;48.400;10.808;2023-06-10T05:56:55;4.03;;;3.40;;
38513;SDS011;24282;48.400;10.808;2023-06-10T05:59:21;3.72;;;3.40;;
38513;SDS011;24282;48.400;10.808;2023-06-10T06:01:48;3.97;;;3.08;;
38513;SDS011;24282;48.400;10.808;2023-06-10T06:04:15;4.03;;;2.95;;
38513;SDS011;24282;48.400;10.808;2023-06-10T06:06:41;3.92;;;3.58;;
38513;SDS011;24282;48.400;10.808;2023-06-10T06:09:07;4.07;;;3.47;;
38513;SDS011;24282;48.400;10.808;2023-06-10T06:11:33;4.75;;;3.10;;
38513;SDS011;24282;48.400;10.808;2023-06-10T06:14:00;3.92;;;3.35;;
38513;SDS011;24282;48.400;10.808;2023-06-10T06:16:25;4.35;;;3.95;;
38513;SDS011;24282;48.400;10.808;2023-06-10T06:18:51;4.10;;;3.45;;
38513;SDS011;24282;48.400;10.808;2023-06-10T06:21:17;3.15;;;2.80;;
38513;SDS011;24282;48.400;10.808;2023-06-10T06:23:43;4.28;;;3.22;;
38513;SDS011;24282;48.400;10.808;2023-06-10T06:26:08;3.47;;;3.17;;
38513;SDS011;24282;48.400;10.808;2023-06-10T06:28:34;3.10;;;2.78;;
38513;SDS011;24282;48.400;10.808;2023-06-10T06:31:00;3.33;;;2.97;;
38513;SDS011;24282;48.400;10.808;2023-06-10T06:33:26;3.17;;;2.88;;
38513;SDS011;24282;48.400;10.808;2023-06-10T06:35:52;3.20;;;2.90;;
38513;SDS011;24282;48.400;10.808;2023-06-10T06:38:18;4.22;;;3.42;;
38513;SDS011;24282;48.400;10.808;2023-06-10T06:40:43;3.53;;;3.22;;
38513;SDS011;24282;48.400;10.808;2023-06-10T06:43:09;3.60;;;3.30;;
38513;SDS011;24282;48.400;10.808;2023-06-10T06:45:54;3.47;;;3.00;;
38513;SDS011;24282;48.400;10.808;2023-06-10T06:48:20;3.65;;;3.25;;
38513;SDS011;24282;48.400;10.808;2023-06-10T06:50:45;3.88;;;3.40;;
38513;SDS011;24282;48.400;10.808;2023-06-10T06:53:11;3.92;;;3.47;;
38513;SDS011;24282;48.400;10.808;2023-06-10T06:55:37;4.22;;;3.67;;
38513;SDS011;24282;48.400;10.808;2023-06-10T06:58:03;3.38;;;3.08;;
38513;SDS011;24282;48.400;10.808;2023-06-10T07:00:29;3.88;;;3.47;;
38513;SDS011;24282;48.400;10.808;2023-06-10T07:02:55;3.60;;;3.03;;
38513;SDS011;24282;48.400;10.808;2023-06-10T07:05:22;3.35;;;3.00;;
38513;SDS011;24282;48.400;10.808;2023-06-10T07:07:50;3.47;;;2.97;;
38513;SDS011;24282;48.400;10.808;2023-06-10T07:10:20;3.03;;;2.60;;
38513;SDS011;24282;48.400;10.808;2023-06-10T07:12:50;3.75;;;2.97;;
38513;SDS011;24282;48.400;10.808;2023-06-10T07:15:16;4.35;;;3.22;;
38513;SDS011;24282;48.400;10.808;2023-06-10T07:17:42;3.30;;;2.90;;
38513;SDS011;24282;48.400;10.808;2023-06-10T07:20:09;3.13;;;2.78;;
38513;SDS011;24282;48.400;10.808;2023-06-10T07:22:35;3.05;;;2.58;;
38513;SDS011;24282;48.400;10.808;2023-06-10T07:25:00;2.40;;;2.17;;
38513;SDS011;24282;48.400;10.808;2023-06-10T07:27:26;2.97;;;2.60;;
38513;SDS011;24282;48.400;10.808;2023-06-10T07:29:52;3.58;;;2.72;;
38513;SDS011;24282;48.400;10.808;2023-06-10T07:32:18;4.15;;;3.08;;
38513;SDS011;24282;48.400;10.808;2023-06-10T07:34:47;3.95;;;3.00;;
38513;SDS011;24282;48.400;10.808;2023-06-10T07:37:13;2.67;;;2.40;;
38513;SDS011;24282;48.400;10.808;2023-06-10T07:39:38;3.80;;;2.80;;
38513;SDS011;24282;48.400;10.808;2023-06-10T07:42:04;3.53;;;3.00;;
38513;SDS011;24282;48.400;10.808;2023-06-10T07:44:31;3.28;;;2.65;;
38513;SDS011;24282;48.400;10.808;2023-06-10T07:46:57;3.67;;;2.17;;
38513;SDS011;24282;48.400;10.808;2023-06-10T07:49:23;3.15;;;2.60;;
38513;SDS011;24282;48.400;10.808;2023-06-10T07:51:49;3.22;;;2.53;;
38513;SDS011;24282;48.400;10.808;2023-06-10T07:54:16;3.15;;;2.75;;
38513;SDS011;24282;48.400;10.808;2023-06-10T07:56:41;2.65;;;2.33;;
38513;SDS011;24282;48.400;10.808;2023-06-10T07:59:07;2.45;;;2.15;;
38513;SDS011;24282;48.400;10.808;2023-06-10T08:01:33;2.33;;;1.95;;
38513;SDS011;24282;48.400;10.808;2023-06-10T08:04:01;2.88;;;2.22;;
38513;SDS011;24282;48.400;10.808;2023-06-10T08:06:26;2.75;;;2.38;;
38513;SDS011;24282;48.400;10.808;2023-06-10T08:08:52;2.50;;;2.25;;
38513;SDS011;24282;48.400;10.808;2023-06-10T08:11:18;2.60;;;2.15;;
38513;SDS011;24282;48.400;10.808;2023-06-10T08:13:44;2.90;;;2.30;;
38513;SDS011;24282;48.400;10.808;2023-06-10T08:16:09;2.95;;;2.60;;
38513;SDS011;24282;48.400;10.808;2023-06-10T08:18:35;2.20;;;2.00;;
38513;SDS011;24282;48.400;10.808;2023-06-10T08:21:01;2.55;;;2.17;;
38513;SDS011;24282;48.400;10.808;2023-06-10T08:23:27;3.03;;;2.13;;
38513;SDS011;24282;48.400;10.808;2023-06-10T08:25:52;2.60;;;2.40;;
38513;SDS011;24282;48.400;10.808;2023-06-10T08:28:18;3.08;;;2.65;;
38513;SDS011;24282;48.400;10.808;2023-06-10T08:30:44;2.42;;;2.17;;
38513;SDS011;24282;48.400;10.808;2023-06-10T08:33:10;2.78;;;2.33;;
38513;SDS011;24282;48.400;10.808;2023-06-10T08:35:36;2.40;;;2.20;;
38513;SDS011;24282;48.400;10.808;2023-06-10T08:38:01;3.17;;;2.25;;
38513;SDS011;24282;48.400;10.808;2023-06-10T08:40:27;2.40;;;1.95;;
38513;SDS011;24282;48.400;10.808;2023-06-10T08:42:56;3.05;;;2.47;;
38513;SDS011;24282;48.400;10.808;2023-06-10T08:45:39;2.53;;;2.33;;
38513;SDS011;24282;48.400;10.808;2023-06-10T08:48:08;2.22;;;2.03;;
38513;SDS011;24282;48.400;10.808;2023-06-10T08:50:38;2.50;;;2.10;;
38513;SDS011;24282;48.400;10.808;2023-06-10T08:53:05;2.28;;;2.08;;
38513;SDS011;24282;48.400;10.808;2023-06-10T08:55:33;3.75;;;2.65;;
38513;SDS011;24282;48.400;10.808;2023-06-10T08:58:01;2.50;;;2.17;;
38513;SDS011;24282;48.400;10.808;2023-06-10T09:00:29;2.00;;;1.80;;
38513;SDS011;24282;48.400;10.808;2023-06-10T09:02:57;3.42;;;2.22;;
38513;SDS011;24282;48.400;10.808;2023-06-10T09:05:24;2.72;;;2.20;;
38513;SDS011;24282;48.400;10.808;2023-06-10T09:07:52;2.03;;;1.80;;
38513;SDS011;24282;48.400;10.808;2023-06-10T09:10:19;2.22;;;1.80;;
38513;SDS011;24282;48.400;10.808;2023-06-10T09:12:45;2.47;;;1.80;;
38513;SDS011;24282;48.400;10.808;2023-06-10T09:15:10;2.42;;;2.10;;
38513;SDS011;24282;48.400;10.808;2023-06-10T09:17:37;1.95;;;1.65;;
38513;SDS011;24282;48.400;10.808;2023-06-10T09:20:05;2.50;;;2.00;;
38513;SDS011;24282;48.400;10.808;2023-06-10T09:22:32;2.08;;;1.88;;
38513;SDS011;24282;48.400;10.808;2023-06-10T09:25:02;2.45;;;1.73;;
38513;SDS011;24282;48.400;10.808;2023-06-10T09:27:55;3.25;;;2.10;;
38513;SDS011;24282;48.400;10.808;2023-06-10T09:30:27;2.47;;;1.80;;
38513;SDS011;24282;48.400;10.808;2023-06-10T09:32:58;2.00;;;1.80;;
38513;SDS011;24282;48.400;10.808;2023-06-10T09:35:29;2.92;;;1.70;;
38513;SDS011;24282;48.400;10.808;2023-06-10T09:37:56;2.33;;;1.98;;
38513;SDS011;24282;48.400;10.808;2023-06-10T09:40:24;2.10;;;1.90;;
38513;SDS011;24282;48.400;10.808;2023-06-10T09:42:54;1.92;;;1.60;;
38513;SDS011;24282;48.400;10.808;2023-06-10T09:45:22;1.98;;;1.77;;
38513;SDS011;24282;48.400;10.808;2023-06-10T09:47:52;2.15;;;1.95;;
38513;SDS011;24282;48.400;10.808;2023-06-10T09:50:19;2.30;;;1.80;;
38513;SDS011;24282;48.400;10.808;2023-06-10T09:52:45;2.05;;;1.90;;
38513;SDS011;24282;48.400;10.808;2023-06-10T09:55:12;3.15;;;1.90;;
38513;SDS011;24282;48.400;10.808;2023-06-10T09:57:38;1.92;;;1.63;;
38513;SDS011;24282;48.400;10.808;2023-06-10T10:00:10;2.38;;;1.63;;
38513;SDS011;24282;48.400;10.808;2023-06-10T10:02:49;2.13;;;1.77;;
38513;SDS011;24282;48.400;10.808;2023-06-10T10:05:17;2.22;;;1.90;;
38513;SDS011;24282;48.400;10.808;2023-06-10T10:07:44;2.88;;;1.98;;
38513;SDS011;24282;48.400;10.808;2023-06-10T10:10:11;1.83;;;1.60;;
38513;SDS011;24282;48.400;10.808;2023-06-10T10:12:38;2.35;;;1.90;;
38513;SDS011;24282;48.400;10.808;2023-06-10T10:15:08;2.08;;;1.88;;
38513;SDS011;24282;48.400;10.808;2023-06-10T10:20:31;2.10;;;1.80;;
38513;SDS011;24282;48.400;10.808;2023-06-10T10:22:59;2.05;;;1.77;;
38513;SDS011;24282;48.400;10.808;2023-06-10T10:25:29;3.97;;;2.03;;
38513;SDS011;24282;48.400;10.808;2023-06-10T10:28:06;2.15;;;1.95;;
38513;SDS011;24282;48.400;10.808;2023-06-10T10:30:40;1.77;;;1.60;;
38513;SDS011;24282;48.400;10.808;2023-06-10T10:33:12;1.80;;;1.65;;
38513;SDS011;24282;48.400;10.808;2023-06-10T10:35:43;2.00;;;1.80;;
38513;SDS011;24282;48.400;10.808;2023-06-10T10:38:11;2.70;;;1.98;;
38513;SDS011;24282;48.400;10.808;2023-06-10T10:40:37;2.13;;;1.92;;
38513;SDS011;24282;48.400;10.808;2023-06-10T10:43:04;2.10;;;1.50;;
38513;SDS011;24282;48.400;10.808;2023-06-10T10:45:31;2.70;;;2.05;;
38513;SDS011;24282;48.400;10.808;2023-06-10T10:47:59;2.10;;;1.90;;
38513;SDS011;24282;48.400;10.808;2023-06-10T10:50:34;1.65;;;1.52;;
38513;SDS011;24282;48.400;10.808;2023-06-10T10:53:01;2.20;;;2.00;;
38513;SDS011;24282;48.400;10.808;2023-06-10T10:55:27;1.90;;;1.70;;
38513;SDS011;24282;48.400;10.808;2023-06-10T11:00:24;2.10;;;1.70;;
38513;SDS011;24282;48.400;10.808;2023-06-10T11:08:09;1.92;;;1.77;;
38513;SDS011;24282;48.400;10.808;2023-06-10T11:10:36;1.70;;;1.60;;
38513;SDS011;24282;48.400;10.808;2023-06-10T11:13:13;2.35;;;1.77;;
38513;SDS011;24282;48.400;10.808;2023-06-10T11:15:44;2.35;;;1.75;;
38513;SDS011;24282;48.400;10.808;2023-06-10T11:28:42;1.60;;;1.50;;
38513;SDS011;24282;48.400;10.808;2023-06-10T11:31:27;1.50;;;1.40;;
38513;SDS011;24282;48.400;10.808;2023-06-10T11:36:26;1.85;;;1.75;;
38513;SDS011;24282;48.400;10.808;2023-06-10T11:39:00;1.70;;;1.50;;
38513;SDS011;24282;48.400;10.808;2023-06-10T11:41:28;1.83;;;1.58;;
38513;SDS011;24282;48.400;10.808;2023-06-10T11:43:55;1.75;;;1.60;;
38513;SDS011;24282;48.400;10.808;2023-06-10T11:46:22;1.90;;;1.70;;
38513;SDS011;24282;48.400;10.808;2023-06-10T11:48:51;2.10;;;1.85;;
38513;SDS011;24282;48.400;10.808;2023-06-10T11:51:18;2.33;;;1.55;;
38513;SDS011;24282;48.400;10.808;2023-06-10T11:53:44;2.30;;;2.08;;
38513;SDS011;24282;48.400;10.808;2023-06-10T11:56:11;1.50;;;1.40;;
38513;SDS011;24282;48.400;10.808;2023-06-10T11:58:36;1.80;;;1.60;;
38513;SDS011;24282;48.400;10.808;2023-06-10T12:01:04;1.80;;;1.58;;
38513;SDS011;24282;48.400;10.808;2023-06-10T12:03:36;2.10;;;1.90;;
38513;SDS011;24282;48.400;10.808;2023-06-10T12:06:06;2.50;;;1.70;;
38513;SDS011;24282;48.400;10.808;2023-06-10T12:08:32;2.08;;;1.65;;
38513;SDS011;24282;48.400;10.808;2023-06-10T12:10:58;2.95;;;1.75;;
38513;SDS011;24282;48.400;10.808;2023-06-10T12:13:28;1.73;;;1.63;;
38513;SDS011;24282;48.400;10.808;2023-06-10T12:15:54;2.20;;;1.75;;
38513;SDS011;24282;48.400;10.808;2023-06-10T12:18:20;2.65;;;1.60;;
38513;SDS011;24282;48.400;10.808;2023-06-10T12:20:47;3.25;;;2.30;;
38513;SDS011;24282;48.400;10.808;2023-06-10T12:23:14;2.33;;;1.70;;
38513;SDS011;24282;48.400;10.808;2023-06-10T12:25:51;2.38;;;1.90;;
38513;SDS011;24282;48.400;10.808;2023-06-10T12:28:21;1.98;;;1.67;;
38513;SDS011;24282;48.400;10.808;2023-06-10T12:30:48;1.92;;;1.73;;
38513;SDS011;24282;48.400;10.808;2023-06-10T12:33:20;2.63;;;1.70;;
38513;SDS011;24282;48.400;10.808;2023-06-10T12:35:50;2.35;;;1.67;;
38513;SDS011;24282;48.400;10.808;2023-06-10T12:38:23;1.92;;;1.70;;
38513;SDS011;24282;48.400;10.808;2023-06-10T12:40:52;1.70;;;1.60;;
38513;SDS011;24282;48.400;10.808;2023-06-10T12:43:24;1.85;;;1.70;;
38513;SDS011;24282;48.400;10.808;2023-06-10T12:50:56;2.63;;;1.60;;
38513;SDS011;24282;48.400;10.808;2023-06-10T12:53:23;2.80;;;1.60;;
38513;SDS011;24282;48.400;10.808;2023-06-10T12:55:49;2.22;;;2.00;;
38513;SDS011;24282;48.400;10.808;2023-06-10T12:58:15;2.75;;;1.60;;
38513;SDS011;24282;48.400;10.808;2023-06-10T13:00:41;1.60;;;1.50;;
38513;SDS011;24282;48.400;10.808;2023-06-10T13:03:08;1.65;;;1.40;;
38513;SDS011;24282;48.400;10.808;2023-06-10T13:05:34;1.58;;;1.42;;
38513;SDS011;24282;48.400;10.808;2023-06-10T13:08:03;1.95;;;1.50;;
38513;SDS011;24282;48.400;10.808;2023-06-10T13:10:30;1.80;;;1.60;;
38513;SDS011;24282;48.400;10.808;2023-06-10T13:12:56;3.60;;;1.50;;
38513;SDS011;24282;48.400;10.808;2023-06-10T13:15:21;1.70;;;1.60;;
38513;SDS011;24282;48.400;10.808;2023-06-10T13:17:47;3.88;;;1.90;;
38513;SDS011;24282;48.400;10.808;2023-06-10T13:20:15;1.83;;;1.40;;
38513;SDS011;24282;48.400;10.808;2023-06-10T13:22:41;1.38;;;1.27;;
38513;SDS011;24282;48.400;10.808;2023-06-10T13:25:07;2.33;;;1.60;;
38513;SDS011;24282;48.400;10.808;2023-06-10T13:27:36;1.75;;;1.40;;
38513;SDS011;24282;48.400;10.808;2023-06-10T13:30:06;1.85;;;1.42;;
38513;SDS011;24282;48.400;10.808;2023-06-10T13:32:33;1.50;;;1.38;;
38513;SDS011;24282;48.400;10.808;2023-06-10T13:35:01;1.60;;;1.50;;
38513;SDS011;24282;48.400;10.808;2023-06-10T13:37:27;1.50;;;1.40;;
38513;SDS011;24282;48.400;10.808;2023-06-10T13:39:52;1.63;;;1.45;;
38513;SDS011;24282;48.400;10.808;2023-06-10T13:42:18;1.65;;;1.55;;
38513;SDS011;24282;48.400;10.808;2023-06-10T13:44:45;1.50;;;1.40;;
38513;SDS011;24282;48.400;10.808;2023-06-10T13:47:12;1.33;;;1.23;;
38513;SDS011;24282;48.400;10.808;2023-06-10T13:49:39;1.65;;;1.45;;
38513;SDS011;24282;48.400;10.808;2023-06-10T13:52:05;1.35;;;1.23;;
38513;SDS011;24282;48.400;10.808;2023-06-10T13:54:32;2.22;;;1.58;;
38513;SDS011;24282;48.400;10.808;2023-06-10T13:56:58;1.70;;;1.30;;
38513;SDS011;24282;48.400;10.808;2023-06-10T13:59:25;1.40;;;1.20;;
38513;SDS011;24282;48.400;10.808;2023-06-10T14:01:51;1.60;;;1.40;;
38513;SDS011;24282;48.400;10.808;2023-06-10T14:04:16;1.38;;;1.25;;
38513;SDS011;24282;48.400;10.808;2023-06-10T14:06:42;1.98;;;1.27;;
38513;SDS011;24282;48.400;10.808;2023-06-10T14:09:08;1.30;;;1.20;;
38513;SDS011;24282;48.400;10.808;2023-06-10T14:11:34;1.77;;;1.20;;
38513;SDS011;24282;48.400;10.808;2023-06-10T14:14:00;1.85;;;1.48;;
38513;SDS011;24282;48.400;10.808;2023-06-10T14:16:26;1.67;;;1.30;;
38513;SDS011;24282;48.400;10.808;2023-06-10T14:18:52;1.50;;;1.40;;
38513;SDS011;24282;48.400;10.808;2023-06-10T14:21:18;1.70;;;1.33;;
38513;SDS011;24282;48.400;10.808;2023-06-10T14:23:44;1.30;;;1.20;;
38513;SDS011;24282;48.400;10.808;2023-06-10T14:26:10;1.58;;;1.30;;
38513;SDS011;24282;48.400;10.808;2023-06-10T14:28:36;2.38;;;1.40;;
38513;SDS011;24282;48.400;10.808;2023-06-10T14:31:02;1.27;;;1.17;;
38513;SDS011;24282;48.400;10.808;2023-06-10T14:33:28;1.73;;;1.27;;
38513;SDS011;24282;48.400;10.808;2023-06-10T14:35:54;1.30;;;1.20;;
38513;SDS011;24282;48.400;10.808;2023-06-10T14:38:20;1.30;;;0.90;;
38513;SDS011;24282;48.400;10.808;2023-06-10T14:40:45;1.35;;;0.95;;
38513;SDS011;24282;48.400;10.808;2023-06-10T14:43:12;0.95;;;0.90;;
38513;SDS011;24282;48.400;10.808;2023-06-10T14:45:38;1.10;;;0.95;;
38513;SDS011;24282;48.400;10.808;2023-06-10T14:48:04;0.73;;;0.70;;
38513;SDS011;24282;48.400;10.808;2023-06-10T14:50:31;1.90;;;0.88;;
38513;SDS011;24282;48.400;10.808;2023-06-10T14:52:58;1.13;;;1.00;;
38513;SDS011;24282;48.400;10.808;2023-06-10T14:55:24;0.90;;;0.90;;
38513;SDS011;24282;48.400;10.808;2023-06-10T14:57:49;2.10;;;1.20;;
38513;SDS011;24282;48.400;10.808;2023-06-10T15:00:15;1.40;;;1.02;;
38513;SDS011;24282;48.400;10.808;2023-06-10T15:02:46;1.30;;;1.00;;
38513;SDS011;24282;48.400;10.808;2023-06-10T15:05:14;1.50;;;1.02;;
38513;SDS011;24282;48.400;10.808;2023-06-10T15:07:41;1.40;;;1.13;;